Time;durP1;ratioP1;P1;durP2;ratioP2;P2;SDS_P1;SDS_P2;PMS_P1;PMS_P2;Temp;Humidity;BMP_temperature;BMP_pressure;BME280_temperature;BME280_humidity;BME280_pressure;Samples;Min_cycle;Max_cycle;Signal;HPM_P1;HPM_P2
2022/03/03 00:00:37;;;;;;;13.90;10.28;;;;;;;0.90;81.40;99310.70;1639528;87;21104;-83
2022/03/03 00:03:04;;;;;;;18.17;10.72;;;;;;;0.92;81.41;99306.38;1639083;87;21304;-84
2022/03/03 00:05:30;;;;;;;17.57;11.50;;;;;;;0.92;81.43;99299.91;1639710;87;21136;-82
2022/03/03 00:07:56;;;;;;;17.57;11.08;;;;;;;0.90;81.49;99299.05;1639593;87;21103;-83
2022/03/03 00:10:22;;;;;;;17.70;11.12;;;;;;;0.90;81.48;99302.94;1645327;86;21116;-82
2022/03/03 00:12:51;;;;;;;15.32;10.88;;;;;;;0.90;81.48;99295.16;1710811;83;21092;-85
2022/03/03 00:15:17;;;;;;;14.98;10.80;;;;;;;0.91;81.48;99288.70;1681807;84;22040;-84
2022/03/03 00:17:45;;;;;;;18.70;11.85;;;;;;;0.91;81.50;99287.84;1671514;85;21615;-83
2022/03/03 00:20:11;;;;;;;16.87;11.55;;;;;;;0.90;81.54;99288.69;1671878;84;21525;-84
2022/03/03 00:22:38;;;;;;;16.42;11.73;;;;;;;0.89;81.58;99281.36;1671193;85;21132;-85
2022/03/03 00:25:06;;;;;;;17.30;11.50;;;;;;;0.91;81.56;99286.55;1671531;84;21545;-85
2022/03/03 00:27:34;;;;;;;17.80;12.18;;;;;;;0.92;81.55;99289.55;1682518;83;21169;-80
2022/03/03 00:30:00;;;;;;;19.95;12.33;;;;;;;0.91;81.61;99287.84;1695559;84;21451;-84
2022/03/03 00:32:27;;;;;;;21.73;13.43;;;;;;;0.91;81.63;99287.84;1669243;84;21104;-86
2022/03/03 00:34:55;;;;;;;17.98;12.78;;;;;;;0.90;81.64;99278.33;1693719;83;21068;-80
2022/03/03 00:37:21;;;;;;;20.62;12.70;;;;;;;0.91;81.63;99278.33;1671687;84;21005;-81
2022/03/03 00:39:47;;;;;;;17.67;12.35;;;;;;;0.92;81.66;99279.19;1678390;84;21168;-86
2022/03/03 00:42:14;;;;;;;18.35;12.15;;;;;;;0.91;81.68;99280.06;1679271;84;20978;-80
2022/03/03 00:44:40;;;;;;;19.85;12.58;;;;;;;0.89;81.71;99280.47;1669154;84;21104;-83
2022/03/03 00:47:08;;;;;;;18.67;12.25;;;;;;;0.89;81.76;99274.00;1664202;84;21124;-82
2022/03/03 00:49:35;;;;;;;19.45;12.13;;;;;;;0.90;81.76;99269.27;1646475;85;21108;-79
2022/03/03 00:52:01;;;;;;;18.42;12.15;;;;;;;0.89;81.78;99272.70;1665549;84;21623;-82
2022/03/03 00:54:28;;;;;;;19.25;12.45;;;;;;;0.89;81.80;99273.59;1684040;84;21104;-83
2022/03/03 00:56:55;;;;;;;23.05;13.95;;;;;;;0.89;81.82;99270.11;1691338;84;21060;-76
2022/03/03 00:59:22;;;;;;;19.20;12.90;;;;;;;0.90;81.88;99261.49;1666488;84;21085;-83
2022/03/03 01:01:48;;;;;;;19.17;12.78;;;;;;;0.87;81.91;99261.48;1678246;84;21088;-81
2022/03/03 01:04:14;;;;;;;19.85;13.55;;;;;;;0.85;81.99;99267.95;1674077;84;21770;-83
2022/03/03 01:06:42;;;;;;;17.60;12.47;;;;;;;0.85;82.07;99260.63;1663751;84;21064;-84
2022/03/03 01:09:09;;;;;;;16.00;11.48;;;;;;;0.86;82.04;99259.78;1674233;84;21563;-81
2022/03/03 01:11:35;;;;;;;17.77;11.93;;;;;;;0.86;82.04;99262.37;1689652;84;21115;-87
2022/03/03 01:14:02;;;;;;;17.75;12.63;;;;;;;0.84;82.09;99262.77;1657824;83;21033;-86
2022/03/03 01:16:28;;;;;;;18.80;12.20;;;;;;;0.82;82.08;99265.36;1680065;84;21128;-85
2022/03/03 01:18:55;;;;;;;18.45;12.50;;;;;;;0.82;82.12;99265.80;1671249;84;21084;-82
2022/03/03 01:21:21;;;;;;;20.15;12.78;;;;;;;0.82;82.14;99258.03;1671789;84;21136;-87
2022/03/03 01:23:48;;;;;;;17.82;12.68;;;;;;;0.82;82.15;99258.88;1672449;84;21069;-86
2022/03/03 01:26:14;;;;;;;16.35;12.10;;;;;;;0.80;82.17;99258.47;1683814;84;21136;-84
2022/03/03 01:28:40;;;;;;;20.92;13.35;;;;;;;0.76;82.22;99259.31;1678020;84;21183;-79
2022/03/03 01:31:07;;;;;;;18.55;12.85;;;;;;;0.73;82.23;99261.05;1669996;84;21094;-88
2022/03/03 01:33:34;;;;;;;19.30;12.45;;;;;;;0.76;82.25;99260.61;1661906;84;21190;-84
2022/03/03 01:36:00;;;;;;;20.88;13.10;;;;;;;0.73;82.28;99261.05;1673919;84;21122;-81
2022/03/03 01:38:27;;;;;;;18.05;11.38;;;;;;;0.73;82.34;99262.34;1673253;84;21097;-82
2022/03/03 01:40:53;;;;;;;19.48;12.35;;;;;;;0.71;82.42;99262.77;1676336;84;21109;-86
2022/03/03 01:43:19;;;;;;;19.55;12.85;;;;;;;0.74;82.47;99251.12;1680431;84;21642;-86
2022/03/03 01:45:46;;;;;;;17.50;12.40;;;;;;;0.73;82.51;99249.39;1668727;84;21022;-80
2022/03/03 01:48:12;;;;;;;17.25;11.83;;;;;;;0.71;82.53;99251.12;1679764;84;22188;-80
2022/03/03 01:50:39;;;;;;;19.02;12.05;;;;;;;0.73;82.60;99246.80;1673139;84;21118;-78
2022/03/03 01:53:06;;;;;;;18.67;12.20;;;;;;;0.73;82.58;99247.24;1671711;84;21870;-79
2022/03/03 01:55:32;;;;;;;19.42;12.58;;;;;;;0.72;82.57;99246.80;1673741;84;21109;-78
2022/03/03 01:58:00;;;;;;;16.85;11.45;;;;;;;0.66;82.66;99245.52;1671184;84;21127;-81
2022/03/03 02:00:27;;;;;;;18.75;12.33;;;;;;;0.62;82.72;99245.91;1680663;84;21337;-80
2022/03/03 02:02:55;;;;;;;18.35;11.73;;;;;;;0.58;82.82;99241.61;1671370;84;21668;-75
2022/03/03 02:05:21;;;;;;;21.40;11.68;;;;;;;0.58;82.91;99243.34;1675156;83;21804;-80
2022/03/03 02:07:49;;;;;;;17.02;11.63;;;;;;;0.55;82.97;99239.90;1673844;84;21413;-78
2022/03/03 02:10:16;;;;;;;19.95;11.18;;;;;;;0.53;83.01;99238.16;1672228;84;21139;-82
2022/03/03 02:12:43;;;;;;;17.10;10.70;;;;;;;0.54;83.07;99240.75;1676486;84;21139;-81
2022/03/03 02:15:18;;;;;;;18.45;11.83;;;;;;;0.57;83.07;99235.98;1679181;84;21144;-80
2022/03/03 02:17:44;;;;;;;17.17;10.93;;;;;;;0.58;83.07;99235.14;1680487;83;21139;-81
2022/03/03 02:20:27;;;;;;;16.80;11.40;;;;;;;0.60;83.07;99233.84;1674919;83;21128;-83
2022/03/03 02:22:54;;;;;;;17.80;11.10;;;;;;;0.61;83.08;99233.00;1678614;83;20993;-81
2022/03/03 02:25:21;;;;;;;17.57;12.15;;;;;;;0.62;83.07;99226.94;1681707;83;21691;-81
2022/03/03 02:27:48;;;;;;;17.15;11.08;;;;;;;0.63;83.04;99221.77;1677002;83;21083;-81
2022/03/03 02:30:17;;;;;;;21.30;11.90;;;;;;;0.65;83.05;99221.33;1692975;83;21555;-80
2022/03/03 02:32:45;;;;;;;16.48;11.45;;;;;;;0.63;83.05;99221.77;1661300;83;21071;-82
2022/03/03 02:35:12;;;;;;;16.67;11.57;;;;;;;0.63;83.05;99220.47;1681193;83;21152;-82
2022/03/03 02:37:40;;;;;;;19.17;13.10;;;;;;;0.62;83.05;99213.55;1685632;83;21438;-79
2022/03/03 02:40:10;;;;;;;17.98;11.68;;;;;;;0.62;83.10;99214.84;1687408;83;21087;-81
2022/03/03 02:42:36;;;;;;;19.77;11.83;;;;;;;0.62;83.15;99210.96;1655113;83;21156;-82
2022/03/03 02:45:05;;;;;;;16.32;10.85;;;;;;;0.62;83.14;99210.96;1690623;83;21163;-78
2022/03/03 02:47:32;;;;;;;15.75;11.88;;;;;;;0.59;83.16;99201.92;1677828;83;21131;-81
2022/03/03 02:49:58;;;;;;;16.82;12.03;;;;;;;0.56;83.17;99207.09;1679581;83;21098;-77
2022/03/03 02:52:24;;;;;;;20.62;12.13;;;;;;;0.54;83.27;99203.66;1686371;83;21131;-76
2022/03/03 02:54:51;;;;;;;16.02;11.03;;;;;;;0.53;83.36;99204.50;1661017;83;21112;-77
2022/03/03 03:00:06;;;;;;;17.32;11.48;;;;;;;0.55;83.40;99201.06;1674166;83;23103;-78
2022/03/03 03:02:34;;;;;;;19.73;11.68;;;;;;;0.53;83.44;99197.59;1700820;83;21115;-78
2022/03/03 03:05:00;;;;;;;19.25;11.85;;;;;;;0.51;83.49;99192.84;1682180;83;21096;-76
2022/03/03 03:07:27;;;;;;;17.27;11.68;;;;;;;0.51;83.59;99188.11;1695554;83;21982;-79
2022/03/03 03:09:53;;;;;;;17.25;11.20;;;;;;;0.52;83.65;99182.94;1674232;83;21083;-77
2022/03/03 03:12:20;;;;;;;18.45;12.00;;;;;;;0.53;83.68;99187.23;1654799;83;21004;-76
2022/03/03 03:14:47;;;;;;;16.80;10.68;;;;;;;0.55;83.75;99182.06;1688243;83;21089;-77
2022/03/03 03:17:13;;;;;;;15.65;10.82;;;;;;;0.54;83.76;99181.65;1669203;84;21128;-77
2022/03/03 03:19:39;;;;;;;17.75;11.93;;;;;;;0.58;83.70;99169.13;1678476;84;21993;-76
2022/03/03 03:22:06;;;;;;;19.50;12.23;;;;;;;0.62;83.73;99176.02;1681323;84;21073;-77
2022/03/03 03:24:32;;;;;;;20.97;12.25;;;;;;;0.62;83.79;99168.69;1656466;84;21121;-76
2022/03/03 03:26:58;;;;;;;16.60;10.53;;;;;;;0.60;83.77;99164.80;1678959;84;20999;-79
2022/03/03 03:29:25;;;;;;;16.67;11.05;;;;;;;0.61;83.79;99162.66;1666025;84;21127;-76
2022/03/03 03:31:51;;;;;;;15.85;10.80;;;;;;;0.62;83.77;99164.36;1662223;84;21090;-77
2022/03/03 03:34:18;;;;;;;14.07;10.28;;;;;;;0.60;83.79;99159.62;1617711;87;21039;-77
2022/03/03 03:36:44;;;;;;;14.85;10.38;;;;;;;0.57;83.78;99160.91;1641953;87;21118;-78
2022/03/03 03:39:10;;;;;;;16.15;11.20;;;;;;;0.54;83.75;99157.05;1642916;87;21126;-77
2022/03/03 03:41:37;;;;;;;15.13;10.53;;;;;;;0.56;83.72;99155.32;1644883;86;21679;-76
2022/03/03 03:44:05;;;;;;;15.50;10.32;;;;;;;0.56;83.63;99150.14;1636896;86;21667;-79
2022/03/03 03:46:31;;;;;;;14.87;9.60;;;;;;;0.53;83.59;99150.99;1615014;86;22570;-77
2022/03/03 03:48:57;;;;;;;14.03;10.05;;;;;;;0.52;83.54;99149.70;1636432;86;21072;-79
2022/03/03 03:51:24;;;;;;;16.12;9.95;;;;;;;0.53;83.51;99147.55;1659714;86;22317;-78
2022/03/03 03:53:51;;;;;;;13.98;9.75;;;;;;;0.53;83.49;99140.64;1636684;86;21164;-77
2022/03/03 03:56:17;;;;;;;15.28;10.00;;;;;;;0.53;83.48;99139.78;1637612;86;21853;-77
2022/03/03 03:58:44;;;;;;;15.70;9.70;;;;;;;0.53;83.47;99139.78;1636039;86;21177;-75
2022/03/03 04:01:12;;;;;;;15.30;10.08;;;;;;;0.54;83.47;99136.34;1648584;86;21571;-78
2022/03/03 04:03:38;;;;;;;13.30;9.63;;;;;;;0.54;83.41;99129.43;1637695;86;21064;-77
2022/03/03 04:06:05;;;;;;;15.75;9.43;;;;;;;0.54;83.38;99135.05;1649541;84;21097;-79
2022/03/03 04:08:32;;;;;;;13.95;9.18;;;;;;;0.52;83.38;99131.58;1654005;86;21165;-77
2022/03/03 04:10:58;;;;;;;12.98;9.20;;;;;;;0.51;83.37;99131.16;1641317;86;21615;-78
2022/03/03 04:13:25;;;;;;;12.03;9.00;;;;;;;0.52;83.36;99132.45;1648315;86;21120;-77
2022/03/03 04:15:52;;;;;;;13.45;9.13;;;;;;;0.54;83.34;99129.43;1641175;86;21148;-79
2022/03/03 04:18:18;;;;;;;12.70;8.83;;;;;;;0.55;83.33;99127.28;1632200;87;21139;-79
2022/03/03 04:20:45;;;;;;;12.78;9.10;;;;;;;0.55;83.32;99125.11;1626190;87;21812;-80
2022/03/03 04:23:11;;;;;;;11.22;9.38;;;;;;;0.55;83.25;99127.70;1638997;87;21119;-78
2022/03/03 04:25:38;;;;;;;11.78;8.70;;;;;;;0.57;83.15;99131.58;1618717;87;21192;-79
2022/03/03 04:28:04;;;;;;;13.05;9.23;;;;;;;0.55;83.14;99132.87;1620499;87;21110;-80
2022/03/03 04:30:31;;;;;;;12.25;8.85;;;;;;;0.53;83.16;99137.20;1621703;87;21041;-79
2022/03/03 04:32:57;;;;;;;14.73;9.95;;;;;;;0.51;83.17;99126.84;1616318;86;22409;-78
2022/03/03 04:35:24;;;;;;;12.23;8.45;;;;;;;0.54;83.16;99128.58;1632267;85;21674;-81
2022/03/03 04:37:50;;;;;;;14.05;9.58;;;;;;;0.56;83.16;99128.14;1593206;88;21130;-81
2022/03/03 04:40:17;;;;;;;11.48;8.85;;;;;;;0.53;83.16;99126.84;1666508;86;21063;-81
2022/03/03 04:42:43;;;;;;;12.00;8.23;;;;;;;0.51;83.19;99125.55;1638717;86;21095;-81
2022/03/03 04:45:10;;;;;;;11.40;8.65;;;;;;;0.50;83.17;99129.42;1632562;86;21514;-81
2022/03/03 04:47:36;;;;;;;12.35;8.23;;;;;;;0.49;83.14;99129.02;1628116;86;21121;-80
2022/03/03 04:50:04;;;;;;;11.33;8.13;;;;;;;0.44;83.14;99128.12;1627697;86;21150;-80
2022/03/03 04:52:31;;;;;;;13.25;8.28;;;;;;;0.41;83.20;99121.68;1628200;86;21137;-80
2022/03/03 04:54:57;;;;;;;12.85;8.30;;;;;;;0.39;83.29;99123.38;1639552;86;21642;-79
2022/03/03 04:57:23;;;;;;;11.73;8.25;;;;;;;0.36;83.29;99113.91;1604339;88;21733;-81
2022/03/03 04:59:50;;;;;;;11.43;7.87;;;;;;;0.36;83.32;99121.23;1633249;86;21131;-78
2022/03/03 05:02:16;;;;;;;11.53;7.95;;;;;;;0.36;83.37;99128.99;1621560;88;21067;-78
2022/03/03 05:04:42;;;;;;;14.47;7.67;;;;;;;0.33;83.39;99122.52;1611231;88;21649;-79
2022/03/03 05:07:09;;;;;;;10.63;8.43;;;;;;;0.35;83.46;99122.11;1597270;87;22098;-80
2022/03/03 05:09:36;;;;;;;11.30;7.97;;;;;;;0.36;83.47;99109.58;1630749;86;21815;-82
2022/03/03 05:12:06;;;;;;;11.22;8.50;;;;;;;0.39;83.53;99115.61;1624127;88;21147;-79
2022/03/03 05:14:32;;;;;;;10.98;8.08;;;;;;;0.41;83.47;99113.91;1618200;86;21039;-79
2022/03/03 05:16:59;;;;;;;12.23;8.43;;;;;;;0.41;83.47;99111.33;1640860;85;21183;-81
2022/03/03 05:19:25;;;;;;;9.90;7.55;;;;;;;0.43;83.41;99113.03;1682692;84;21105;-79
2022/03/03 05:21:52;;;;;;;11.83;7.85;;;;;;;0.45;83.39;99110.45;1685710;84;21102;-78
2022/03/03 05:24:18;;;;;;;9.30;7.65;;;;;;;0.46;83.39;99117.36;1669926;84;21070;-79
2022/03/03 05:26:45;;;;;;;9.53;7.65;;;;;;;0.47;83.42;99108.71;1681299;84;21175;-78
2022/03/03 05:29:11;;;;;;;9.65;7.97;;;;;;;0.51;83.36;99113.05;1652242;84;21076;-84
2022/03/03 05:31:38;;;;;;;12.13;8.23;;;;;;;0.54;83.27;99108.72;1672677;84;21092;-79
2022/03/03 05:34:04;;;;;;;12.05;7.45;;;;;;;0.55;83.25;99111.76;1673798;84;21546;-80
2022/03/03 05:36:31;;;;;;;11.50;7.60;;;;;;;0.54;83.20;99110.45;1690225;83;21002;-85
2022/03/03 05:38:58;;;;;;;11.12;7.85;;;;;;;0.54;83.13;99110.45;1666998;84;21084;-81
2022/03/03 05:41:24;;;;;;;12.53;7.80;;;;;;;0.57;83.08;99105.69;1673139;84;21074;-80
2022/03/03 05:43:50;;;;;;;13.25;9.45;;;;;;;0.57;83.09;99109.14;1667345;84;21061;-83
2022/03/03 05:46:17;;;;;;;14.30;10.18;;;;;;;0.59;83.09;99110.43;1687870;84;21497;-82
2022/03/03 05:48:43;;;;;;;12.47;9.85;;;;;;;0.58;83.06;99112.17;1688939;82;21078;-86
2022/03/03 05:51:10;;;;;;;12.95;9.53;;;;;;;0.56;83.02;99102.25;1690212;84;21100;-83
2022/03/03 05:53:37;;;;;;;13.32;9.08;;;;;;;0.57;83.03;99101.37;1674077;84;21136;-84
2022/03/03 05:56:09;;;;;;;10.48;7.83;;;;;;;0.57;83.05;99103.95;1652322;84;21139;-86
2022/03/03 05:58:44;;;;;;;13.32;8.68;;;;;;;0.58;83.05;99111.31;1667386;84;21561;-84
2022/03/03 06:01:12;;;;;;;14.65;8.78;;;;;;;0.57;83.01;99106.98;1689658;83;21037;-82
2022/03/03 06:03:39;;;;;;;11.85;8.43;;;;;;;0.58;82.93;99112.61;1662091;84;21030;-82
2022/03/03 06:06:19;;;;;;;9.95;7.58;;;;;;;0.54;82.92;99108.72;1662820;84;21599;-80
2022/03/03 06:09:11;;;;;;;10.08;7.50;;;;;;;0.53;82.92;99111.31;1688340;84;21195;-83
2022/03/03 06:11:49;;;;;;;11.03;7.78;;;;;;;0.53;82.92;99109.58;1670254;84;21173;-84
2022/03/03 06:14:25;;;;;;;11.83;8.03;;;;;;;0.53;82.84;99108.72;1630496;86;21164;-79
2022/03/03 06:16:52;;;;;;;11.12;7.90;;;;;;;0.51;82.88;99106.13;1639715;86;21040;-81
2022/03/03 06:19:20;;;;;;;7.78;6.92;;;;;;;0.51;82.91;99106.57;1637596;86;21067;-83
2022/03/03 06:21:46;;;;;;;10.43;7.62;;;;;;;0.49;82.89;99099.25;1615770;86;22233;-83
2022/03/03 06:24:13;;;;;;;9.68;7.62;;;;;;;0.51;82.87;99107.87;1636898;86;21581;-85
2022/03/03 06:26:39;;;;;;;10.82;8.08;;;;;;;0.50;82.88;99102.25;1636678;86;21628;-79
2022/03/03 06:29:06;;;;;;;9.05;7.20;;;;;;;0.49;82.95;99109.59;1641907;86;21078;-81
2022/03/03 06:31:34;;;;;;;8.60;7.25;;;;;;;0.49;82.97;99105.28;1640602;86;21059;-79
2022/03/03 06:34:00;;;;;;;7.90;7.10;;;;;;;0.49;82.96;99101.39;1621459;86;21020;-85
2022/03/03 06:36:26;;;;;;;8.18;7.20;;;;;;;0.47;82.92;99103.53;1647076;86;22060;-78
2022/03/03 06:38:53;;;;;;;27.50;15.88;;;;;;;0.45;82.96;99092.33;1656934;86;21031;-83
2022/03/03 06:41:19;;;;;;;12.40;9.00;;;;;;;0.44;83.04;99090.59;1615971;86;21038;-80
2022/03/03 06:43:46;;;;;;;11.60;8.58;;;;;;;0.46;83.06;99095.36;1642537;86;21091;-81
2022/03/03 06:46:18;;;;;;;7.95;7.15;;;;;;;0.50;83.02;99091.89;1645763;86;21094;-71
2022/03/03 06:48:41;;;;;;;7.37;6.60;;;;;;;0.53;83.02;99095.78;1636895;86;21252;-81
2022/03/03 06:51:11;;;;;;;7.83;6.85;;;;;;;0.58;83.19;99093.19;1636132;86;21148;-81
2022/03/03 06:53:39;;;;;;;9.38;6.25;;;;;;;0.64;83.17;99091.46;1592787;86;21102;-78
2022/03/03 06:56:08;;;;;;;7.85;6.40;;;;;;;0.71;83.06;99089.72;1649217;84;21139;-81
2022/03/03 06:58:35;;;;;;;6.85;6.10;;;;;;;0.74;82.92;99090.58;1636972;86;21078;-81
2022/03/03 07:01:09;;;;;;;7.33;6.60;;;;;;;0.73;82.81;99092.72;1637082;86;21616;-80
2022/03/03 07:03:36;;;;;;;7.33;5.92;;;;;;;0.75;82.80;99094.02;1656473;86;21082;-82
2022/03/03 07:06:04;;;;;;;6.40;5.75;;;;;;;0.75;82.71;99087.55;1638571;86;21091;-79
2022/03/03 07:08:32;;;;;;;7.83;6.62;;;;;;;0.77;82.61;99083.66;1647145;86;21150;-82
2022/03/03 07:11:01;;;;;;;8.20;6.55;;;;;;;0.76;82.56;99089.69;1640858;86;21696;-78
2022/03/03 07:13:31;;;;;;;6.47;5.87;;;;;;;0.76;82.58;99096.17;1644148;86;21086;-80
2022/03/03 07:16:23;;;;;;;7.58;6.55;;;;;;;0.76;82.61;99095.75;1656044;86;21151;-80
2022/03/03 07:18:52;;;;;;;6.97;6.05;;;;;;;0.79;82.62;99094.46;1605527;87;21131;-78
2022/03/03 07:21:58;;;;;;;7.03;6.33;;;;;;;0.80;82.51;99092.72;1674484;83;21129;-80
2022/03/03 07:24:34;;;;;;;7.05;6.37;;;;;;;0.79;82.46;99094.46;1680212;84;21125;-79
2022/03/03 07:27:04;;;;;;;6.90;6.20;;;;;;;0.78;82.36;99091.43;1671760;84;21160;-81
2022/03/03 07:29:33;;;;;;;8.13;6.75;;;;;;;0.73;82.29;99092.72;1671077;84;21060;-82
2022/03/03 07:32:06;;;;;;;6.95;6.25;;;;;;;0.72;82.23;99094.02;1680278;84;21084;-73
2022/03/03 07:34:36;;;;;;;5.10;4.60;;;;;;;0.74;82.29;99098.78;1674213;84;21092;-73
2022/03/03 07:37:06;;;;;;;7.67;6.87;;;;;;;0.77;82.27;99098.75;1663018;84;21060;-73
2022/03/03 07:39:40;;;;;;;7.22;6.37;;;;;;;0.79;82.21;99086.69;1666727;84;21762;-73
2022/03/03 07:42:14;;;;;;;7.40;6.53;;;;;;;0.84;82.10;99087.95;1686780;83;21648;-79
2022/03/03 07:44:40;;;;;;;11.33;8.55;;;;;;;0.84;82.04;99085.36;1663852;83;21037;-82
2022/03/03 07:47:09;;;;;;;114.15;57.38;;;;;;;0.84;82.03;99084.06;1646191;84;21042;-83
2022/03/03 07:49:35;;;;;;;25.88;16.90;;;;;;;0.85;82.07;99084.52;1665136;84;21520;-81
2022/03/03 07:52:07;;;;;;;9.60;7.95;;;;;;;0.89;82.04;99073.27;1662297;84;39220;-72
2022/03/03 07:54:33;;;;;;;8.70;7.42;;;;;;;0.92;81.99;99075.84;1665727;84;21682;-84
2022/03/03 07:57:01;;;;;;;7.22;6.53;;;;;;;0.95;82.01;99084.91;1668999;84;21659;-78
2022/03/03 07:59:33;;;;;;;8.08;6.65;;;;;;;0.94;81.77;99079.29;1673595;84;21090;-81
2022/03/03 08:02:03;;;;;;;6.95;6.25;;;;;;;0.95;81.75;99084.91;1665089;84;21140;-80
2022/03/03 08:04:33;;;;;;;7.00;6.30;;;;;;;0.98;81.73;99088.80;1662758;84;21596;-82
2022/03/03 08:07:06;;;;;;;7.83;6.75;;;;;;;0.99;81.56;99085.31;1647222;85;21092;-82
2022/03/03 08:09:33;;;;;;;6.87;6.17;;;;;;;0.98;81.60;99077.14;1675335;84;21080;-81
2022/03/03 08:12:04;;;;;;;6.87;6.12;;;;;;;1.02;81.66;99072.80;1661980;84;21029;-84
2022/03/03 08:14:32;;;;;;;6.70;6.05;;;;;;;1.07;81.48;99070.61;1675624;83;21077;-81
2022/03/03 08:16:58;;;;;;;6.00;5.40;;;;;;;1.10;81.47;99066.72;1678426;82;21144;-80
2022/03/03 08:19:26;;;;;;;21.60;14.20;;;;;;;1.14;81.29;99068.02;1664781;84;21068;-86
2022/03/03 08:21:52;;;;;;;14.58;10.90;;;;;;;1.16;81.26;99068.86;1666004;84;21099;-85
2022/03/03 08:24:19;;;;;;;10.72;7.87;;;;;;;1.18;81.18;99072.30;1698587;82;21155;-84
2022/03/03 08:26:49;;;;;;;31.12;18.70;;;;;;;1.21;81.06;99069.70;1672321;84;21077;-84
2022/03/03 08:29:17;;;;;;;10.40;8.48;;;;;;;1.19;80.85;99068.86;1675229;84;21629;-82
2022/03/03 08:31:49;;;;;;;19.50;13.72;;;;;;;1.15;80.81;99062.83;1623752;87;21158;-82
2022/03/03 08:34:30;;;;;;;10.32;8.25;;;;;;;1.13;80.81;99063.27;1645501;86;21129;-81
2022/03/03 08:37:00;;;;;;;13.85;8.65;;;;;;;1.12;80.81;99070.61;1654606;86;21023;-82
2022/03/03 08:39:29;;;;;;;23.42;13.88;;;;;;;1.09;80.78;99067.61;1662975;86;21617;-84
2022/03/03 08:41:57;;;;;;;8.40;7.42;;;;;;;1.09;80.84;99074.09;1626732;86;21125;-86
2022/03/03 08:44:33;;;;;;;6.62;6.00;;;;;;;1.05;80.82;99067.17;1659991;86;21088;-84
2022/03/03 08:47:03;;;;;;;7.28;5.90;;;;;;;1.04;80.82;99065.47;1663536;86;21102;-84
2022/03/03 08:49:37;;;;;;;6.62;6.03;;;;;;;1.06;80.91;99060.25;1662040;86;21147;-84
2022/03/03 08:52:06;;;;;;;6.30;5.70;;;;;;;1.08;80.73;99055.95;1637007;86;21102;-83
2022/03/03 08:54:32;;;;;;;7.47;6.78;;;;;;;1.08;80.75;99061.98;1637399;86;21178;-84
2022/03/03 08:57:01;;;;;;;7.90;7.00;;;;;;;1.11;80.84;99061.98;1615888;86;21503;-79
2022/03/03 08:59:27;;;;;;;9.95;7.30;;;;;;;1.14;80.72;99060.24;1624147;84;21061;-84
2022/03/03 09:01:54;;;;;;;9.30;6.83;;;;;;;1.11;80.73;99061.98;1637107;84;21119;-84
2022/03/03 09:04:21;;;;;;;7.58;6.62;;;;;;;1.11;80.75;99067.16;1637920;86;21032;-83
2022/03/03 09:06:49;;;;;;;8.93;6.80;;;;;;;1.10;80.75;99062.84;1637697;86;21637;-84
2022/03/03 09:09:20;;;;;;;8.25;6.55;;;;;;;1.10;80.72;99065.88;1625321;85;20998;-83
2022/03/03 09:11:48;;;;;;;8.70;7.12;;;;;;;1.13;80.68;99073.64;1648216;86;21109;-85
2022/03/03 09:14:15;;;;;;;7.65;6.85;;;;;;;1.15;80.74;99063.27;1701388;84;21028;-84
2022/03/03 09:16:43;;;;;;;7.65;6.83;;;;;;;1.16;80.80;99066.27;1640759;85;21132;-84
2022/03/03 09:19:11;;;;;;;11.55;8.50;;;;;;;1.18;80.84;99070.59;1666596;84;21065;-87
2022/03/03 09:21:40;;;;;;;10.35;8.63;;;;;;;1.21;80.80;99071.00;1662437;83;21088;-85
2022/03/03 09:24:08;;;;;;;11.45;8.15;;;;;;;1.24;80.77;99069.70;1689945;83;21474;-84
2022/03/03 09:26:37;;;;;;;11.50;8.00;;;;;;;1.25;80.75;99064.95;1672779;83;21686;-87
2022/03/03 09:29:05;;;;;;;8.65;7.37;;;;;;;1.25;80.68;99060.62;1683842;82;21683;-86
2022/03/03 09:31:35;;;;;;;12.20;8.08;;;;;;;1.28;80.66;99068.83;1667519;83;22274;-86
2022/03/03 09:34:03;;;;;;;11.38;8.90;;;;;;;1.31;80.51;99067.50;1699942;83;21349;-88
2022/03/03 09:36:32;;;;;;;9.15;7.90;;;;;;;1.33;80.42;99068.79;1679574;83;21626;-86
2022/03/03 09:39:05;;;;;;;9.53;7.58;;;;;;;1.30;80.44;99064.50;1661707;83;21700;-85
2022/03/03 09:41:34;;;;;;;10.63;8.33;;;;;;;1.31;80.48;99068.80;1659405;83;21671;-85
2022/03/03 09:44:03;;;;;;;9.78;8.38;;;;;;;1.35;80.54;99067.93;1681711;83;21516;-87
2022/03/03 09:46:37;;;;;;;9.88;7.95;;;;;;;1.40;80.46;99058.40;1683914;83;21120;-84
2022/03/03 09:49:07;;;;;;;10.78;8.03;;;;;;;1.40;80.32;99055.80;1667712;83;21114;-87
2022/03/03 09:51:37;;;;;;;10.00;8.35;;;;;;;1.36;80.38;99059.30;1682853;83;21579;-88
2022/03/03 09:54:08;;;;;;;8.95;7.97;;;;;;;1.37;80.41;99061.00;1684636;82;21731;-88
2022/03/03 09:56:37;;;;;;;7.53;6.80;;;;;;;1.40;80.43;99054.52;1687455;82;23093;-86
2022/03/03 09:59:10;;;;;;;8.58;7.55;;;;;;;1.43;80.32;99055.80;1683932;82;21149;-86
2022/03/03 10:01:39;;;;;;;9.45;8.00;;;;;;;1.44;80.32;99058.80;1689796;82;21077;-84
2022/03/03 10:04:23;;;;;;;9.78;7.62;;;;;;;1.41;80.11;99052.36;1684605;83;21654;-86
2022/03/03 10:06:52;;;;;;;9.40;7.65;;;;;;;1.41;80.09;99047.59;1692984;83;21644;-85
2022/03/03 10:09:21;;;;;;;8.93;7.17;;;;;;;1.44;80.12;99044.98;1684144;83;21623;-84
2022/03/03 10:12:03;;;;;;;8.80;7.47;;;;;;;1.42;80.04;99046.73;1683768;83;21559;-84
2022/03/03 10:14:35;;;;;;;8.75;7.37;;;;;;;1.42;80.20;99045.44;1683396;83;21236;-83
2022/03/03 10:17:05;;;;;;;8.33;7.30;;;;;;;1.45;80.23;99045.42;1706016;83;21065;-87
2022/03/03 10:19:36;;;;;;;8.03;7.22;;;;;;;1.49;80.16;99047.97;1705760;83;22161;-84
2022/03/03 10:22:04;;;;;;;8.60;7.33;;;;;;;1.52;80.12;99039.33;1652394;83;21145;-85
2022/03/03 10:24:33;;;;;;;9.30;7.90;;;;;;;1.55;80.15;99035.87;1661788;83;21061;-84
2022/03/03 10:27:06;;;;;;;8.88;7.60;;;;;;;1.53;80.06;99037.58;1681824;83;21567;-84
2022/03/03 10:29:36;;;;;;;8.58;7.58;;;;;;;1.50;80.01;99033.30;1707410;83;21077;-84
2022/03/03 10:32:07;;;;;;;9.85;7.65;;;;;;;1.48;79.84;99033.30;1710976;82;21574;-82
2022/03/03 10:34:38;;;;;;;17.25;10.63;;;;;;;1.46;79.90;99042.83;1696931;82;21068;-84
2022/03/03 10:37:09;;;;;;;9.78;8.03;;;;;;;1.44;79.94;99032.02;1681941;83;21579;-83
2022/03/03 10:39:48;;;;;;;9.65;7.15;;;;;;;1.44;80.08;99034.17;1662928;83;21115;-80
2022/03/03 10:42:18;;;;;;;22.65;15.70;;;;;;;1.42;80.04;99032.47;1681867;83;21092;-80
2022/03/03 10:44:47;;;;;;;13.90;10.85;;;;;;;1.46;80.02;99028.98;1681741;83;21682;-82
2022/03/03 10:47:21;;;;;;;9.28;7.40;;;;;;;1.47;80.05;99028.97;1660913;83;21529;-83
2022/03/03 10:49:52;;;;;;;9.93;8.23;;;;;;;1.50;80.06;99022.92;1682601;82;21413;-83
2022/03/03 10:52:22;;;;;;;11.97;9.55;;;;;;;1.48;79.86;99030.70;1658542;83;21630;-87
2022/03/03 10:55:13;;;;;;;8.28;6.83;;;;;;;1.48;79.89;99024.23;1682445;83;21271;-81
2022/03/03 10:57:51;;;;;;;11.53;7.30;;;;;;;1.52;79.97;99022.92;1664180;83;21144;-84
2022/03/03 11:00:27;;;;;;;8.48;7.60;;;;;;;1.53;79.88;99021.61;1681354;83;22340;-85
2022/03/03 11:02:59;;;;;;;8.75;7.78;;;;;;;1.54;79.96;99016.83;1721691;82;21492;-79
2022/03/03 11:05:30;;;;;;;8.65;7.25;;;;;;;1.56;79.97;99014.23;1681215;83;21033;-79
2022/03/03 11:07:58;;;;;;;7.33;6.62;;;;;;;1.60;79.85;99010.32;1673012;83;21107;-81
2022/03/03 11:10:29;;;;;;;10.23;7.25;;;;;;;1.64;79.90;99013.31;1694168;83;21091;-85
2022/03/03 11:13:02;;;;;;;8.23;6.72;;;;;;;1.71;79.96;99013.28;1691110;83;21072;-78
2022/03/03 11:15:32;;;;;;;7.53;6.72;;;;;;;1.79;80.00;99011.05;1673124;83;21109;-85
2022/03/03 11:18:02;;;;;;;7.92;6.90;;;;;;;1.89;79.86;99014.89;1672290;83;21445;-77
2022/03/03 11:20:33;;;;;;;8.25;7.08;;;;;;;1.98;79.68;99010.91;1673642;83;21663;-73
2022/03/03 11:23:01;;;;;;;9.38;7.25;;;;;;;2.02;79.51;99011.33;1677366;84;21032;-71
2022/03/03 11:25:35;;;;;;;9.70;7.60;;;;;;;2.07;79.34;99009.55;1658540;85;21115;-72
2022/03/03 11:28:08;;;;;;;9.25;7.58;;;;;;;2.12;79.09;98999.98;1682180;84;21070;-72
2022/03/03 11:30:37;;;;;;;8.70;7.30;;;;;;;2.19;79.08;98993.86;1676032;85;21068;-70
2022/03/03 11:33:27;;;;;;;7.87;6.95;;;;;;;2.28;78.94;98993.36;1696803;84;22118;-68
2022/03/03 11:35:59;;;;;;;9.85;7.60;;;;;;;2.34;78.78;98995.91;1684967;84;21116;-79
2022/03/03 11:38:45;;;;;;;8.63;7.22;;;;;;;2.38;78.59;98991.94;1700792;84;21622;-83
2022/03/03 11:41:13;;;;;;;7.75;7.03;;;;;;;2.41;78.32;98987.17;1670301;84;21091;-83
2022/03/03 11:44:00;;;;;;;8.58;7.20;;;;;;;2.42;77.88;98986.27;1660622;84;21564;-80